Time,TemperatureF,DewpointF,PressureIn,WindDirection,WindDirectionDegrees,WindSpeedMPH,WindSpeedGustMPH,Humidity,HourlyPrecipIn,Conditions,Clouds,dailyrainin,SolarRadiationWatts/m^2,SoftwareType,DateUTC
2013-03-08 00:01:00,44.0,-99.9,19.99,WNW,292,0.0,0.0,255,0.00,,,0.00,0,Wunderground v.1.15,2013-03-08 05:01:00,
2013-03-08 00:11:00,44.1,-99.9,19.99,NW,305,1.0,1.0,255,0.00,,,0.00,0,Wunderground v.1.15,2013-03-08 05:11:00,
2013-03-08 00:20:00,44.0,-99.9,19.99,NW,305,0.0,0.0,255,0.00,,,0.00,0,Wunderground v.1.15,2013-03-08 05:20:00,
2013-03-08 00:31:00,44.0,-99.9,19.99,NW,305,0.0,0.0,255,0.00,,,0.00,0,Wunderground v.1.15,2013-03-08 05:31:00,
2013-03-08 00:40:00,44.4,-99.9,19.99,NW,305,1.0,1.0,255,0.00,,,0.00,0,Wunderground v.1.15,2013-03-08 05:40:00,
2013-03-08 00:50:00,43.7,-99.9,19.99,NW,305,1.0,1.0,255,0.00,,,0.00,0,Wunderground v.1.15,2013-03-08 05:50:00,
2013-03-08 01:00:00,43.1,-99.9,19.99,NW,305,0.0,0.0,255,0.00,,,0.00,0,Wunderground v.1.15,2013-03-08 06:00:00,
2013-03-08 01:10:00,43.7,-99.9,19.98,NE,47,3.0,3.0,255,0.00,,,0.00,0,Wunderground v.1.15,2013-03-08 06:10:00,
2013-03-08 01:20:00,43.8,-99.9,19.99,NE,48,2.0,2.0,255,0.00,,,0.00,0,Wunderground v.1.15,2013-03-08 06:20:00,
2013-03-08 01:30:00,43.6,-99.9,19.98,ENE,65,3.0,3.0,255,0.00,,,0.00,0,Wunderground v.1.15,2013-03-08 06:30:00,
2013-03-08 01:40:00,43.6,-99.9,19.99,NE,46,3.0,3.0,255,0.00,,,0.00,0,Wunderground v.1.15,2013-03-08 06:40:00,
2013-03-08 01:50:00,43.2,-99.9,19.98,NE,39,2.0,2.0,255,0.00,,,0.00,0,Wunderground v.1.15,2013-03-08 06:50:00,
2013-03-08 02:00:00,43.2,-99.9,19.98,NE,49,2.0,2.0,255,0.00,,,0.00,0,Wunderground v.1.15,2013-03-08 07:00:00,
2013-03-08 02:10:00,43.2,-99.9,19.98,NE,49,2.0,2.0,255,0.00,,,0.00,0,Wunderground v.1.15,2013-03-08 07:10:00,
2013-03-08 02:20:00,42.8,-99.9,19.99,ENE,57,3.0,3.0,255,0.00,,,0.00,0,Wunderground v.1.15,2013-03-08 07:20:00,
2013-03-08 02:30:00,42.7,-99.9,19.99,NNE,31,6.0,6.0,255,0.00,,,0.00,0,Wunderground v.1.15,2013-03-08 07:30:00,
2013-03-08 02:39:00,42.3,-99.9,19.98,NE,34,2.0,2.0,255,0.00,,,0.00,0,Wunderground v.1.15,2013-03-08 07:39:00,
2013-03-08 02:50:00,41.9,-99.9,19.99,NNE,29,5.0,5.0,255,0.00,,,0.00,0,Wunderground v.1.15,2013-03-08 07:50:00,
2013-03-08 03:01:00,41.8,-99.9,19.99,NNE,26,8.0,8.0,255,0.00,,,0.00,0,Wunderground v.1.15,2013-03-08 08:01:00,
2013-03-08 03:11:00,41.7,-99.9,19.98,NNE,25,12.0,12.0,255,0.00,,,0.00,0,Wunderground v.1.15,2013-03-08 08:11:00,
2013-03-08 03:21:00,41.4,-99.9,19.99,NE,40,4.0,4.0,255,0.00,,,0.00,0,Wunderground v.1.15,2013-03-08 08:21:00,
2013-03-08 03:30:00,41.1,-99.9,19.99,NE,47,5.0,5.0,255,0.00,,,0.00,0,Wunderground v.1.15,2013-03-08 08:30:00,
2013-03-08 03:40:00,41.0,-99.9,19.99,NE,35,11.0,11.0,255,0.00,,,0.00,0,Wunderground v.1.15,2013-03-08 08:40:00,
2013-03-08 03:50:00,40.8,-99.9,19.99,ENE,64,2.0,2.0,255,0.00,,,0.00,0,Wunderground v.1.15,2013-03-08 08:50:00,
2013-03-08 04:00:00,40.6,-99.9,19.98,NE,46,5.0,5.0,255,0.00,,,0.00,0,Wunderground v.1.15,2013-03-08 09:00:00,
2013-03-08 04:10:00,40.3,-99.9,19.99,NE,36,6.0,6.0,255,0.00,,,0.00,0,Wunderground v.1.15,2013-03-08 09:10:00,
2013-03-08 04:20:00,40.3,-99.9,19.99,NE,55,6.0,6.0,255,0.00,,,0.00,0,Wunderground v.1.15,2013-03-08 09:20:00,
2013-03-08 04:30:00,40.3,-99.9,19.99,NE,38,5.0,5.0,255,0.00,,,0.00,0,Wunderground v.1.15,2013-03-08 09:30:00,
2013-03-08 04:40:00,40.1,-99.9,19.98,NE,54,6.0,6.0,255,0.00,,,0.00,0,Wunderground v.1.15,2013-03-08 09:40:00,
2013-03-08 04:50:00,39.9,-99.9,19.99,NNE,17,3.0,3.0,255,0.00,,,0.00,0,Wunderground v.1.15,2013-03-08 09:50:00,
2013-03-08 05:00:00,39.4,-99.9,19.99,NNE,33,5.0,5.0,255,0.00,,,0.00,0,Wunderground v.1.15,2013-03-08 10:00:00,
2013-03-08 05:10:00,39.4,-99.9,19.99,NE,35,7.0,7.0,255,0.00,,,0.00,0,Wunderground v.1.15,2013-03-08 10:10:00,
2013-03-08 05:20:00,39.2,-99.9,19.99,NNE,33,6.0,6.0,255,0.00,,,0.00,0,Wunderground v.1.15,2013-03-08 10:20:00,
2013-03-08 05:30:00,39.1,-99.9,19.99,NE,40,6.0,6.0,255,0.00,,,0.00,0,Wunderground v.1.15,2013-03-08 10:30:00,
2013-03-08 05:39:00,38.8,-99.9,19.99,NE,42,4.0,4.0,255,0.00,,,0.00,0,Wunderground v.1.15,2013-03-08 10:39:00,
2013-03-08 05:49:00,38.8,-99.9,19.99,NNE,20,6.0,6.0,255,0.00,,,0.00,0,Wunderground v.1.15,2013-03-08 10:49:00,
2013-03-08 06:01:00,38.9,-99.9,19.99,NE,44,6.0,6.0,255,0.00,,,0.00,0,Wunderground v.1.15,2013-03-08 11:01:00,
2013-03-08 06:11:00,39.0,-99.9,19.98,NNE,30,6.0,6.0,255,0.00,,,0.00,0,Wunderground v.1.15,2013-03-08 11:11:00,
2013-03-08 06:20:00,38.8,-99.9,19.99,NNE,26,4.0,4.0,255,0.00,,,0.00,0,Wunderground v.1.15,2013-03-08 11:20:00,
2013-03-08 06:31:00,38.6,-99.9,19.98,North,11,4.0,4.0,255,0.00,,,0.00,0,Wunderground v.1.15,2013-03-08 11:31:00,
2013-03-08 06:40:00,38.5,-99.9,19.99,North,9,4.0,4.0,255,0.00,,,0.00,0,Wunderground v.1.15,2013-03-08 11:40:00,
2013-03-08 06:50:00,38.6,-99.9,19.98,NE,42,4.0,4.0,255,0.00,,,0.00,0,Wunderground v.1.15,2013-03-08 11:50:00,
2013-03-08 07:00:00,39.0,-99.9,19.98,NNE,14,5.0,5.0,255,0.00,,,0.00,0,Wunderground v.1.15,2013-03-08 12:00:00,
2013-03-08 07:10:00,39.3,-99.9,19.99,NNE,27,8.0,8.0,255,0.00,,,0.00,0,Wunderground v.1.15,2013-03-08 12:10:00,
2013-03-08 07:20:00,39.7,-99.9,19.99,NNE,23,5.0,5.0,255,0.00,,,0.00,0,Wunderground v.1.15,2013-03-08 12:20:00,
2013-03-08 07:30:00,40.2,-99.9,19.99,NE,38,10.0,10.0,255,0.00,,,0.00,0,Wunderground v.1.15,2013-03-08 12:30:00,
2013-03-08 07:40:00,40.3,-99.9,19.99,NE,41,8.0,8.0,255,0.00,,,0.00,0,Wunderground v.1.15,2013-03-08 12:40:00,
2013-03-08 07:50:00,40.9,-99.9,19.99,NNE,26,14.0,14.0,255,0.00,,,0.00,0,Wunderground v.1.15,2013-03-08 12:50:00,
2013-03-08 08:00:00,41.1,-99.9,19.99,NNE,29,15.0,15.0,255,0.00,,,0.00,0,Wunderground v.1.15,2013-03-08 13:00:00,
2013-03-08 08:10:00,41.7,-99.9,19.99,NNE,31,8.0,8.0,255,0.00,,,0.00,0,Wunderground v.1.15,2013-03-08 13:10:00,
2013-03-08 08:20:00,42.3,-99.9,19.99,NNE,30,8.0,8.0,255,0.00,,,0.00,0,Wunderground v.1.15,2013-03-08 13:20:00,
2013-03-08 08:29:00,43.0,-99.9,19.99,NNE,24,13.0,13.0,255,0.00,,,0.00,0,Wunderground v.1.15,2013-03-08 13:29:00,
2013-03-08 08:40:00,44.2,-99.9,19.99,NNE,19,9.0,9.0,255,0.00,,,0.00,0,Wunderground v.1.15,2013-03-08 13:40:00,
2013-03-08 08:49:00,44.5,-99.9,19.99,NNE,15,4.0,4.0,255,0.00,,,0.00,0,Wunderground v.1.15,2013-03-08 13:49:00,
2013-03-08 09:01:00,45.6,-99.9,19.99,NNE,32,7.0,7.0,255,0.00,,,0.00,0,Wunderground v.1.15,2013-03-08 14:01:00,
2013-03-08 09:11:00,46.7,-99.9,19.99,NNE,30,8.0,8.0,255,0.00,,,0.00,0,Wunderground v.1.15,2013-03-08 14:11:00,
2013-03-08 09:20:00,46.8,-99.9,19.98,NE,47,9.0,9.0,255,0.00,,,0.00,0,Wunderground v.1.15,2013-03-08 14:20:00,
2013-03-08 09:31:00,47.6,-99.9,19.99,NE,45,5.0,5.0,255,0.00,,,0.00,0,Wunderground v.1.15,2013-03-08 14:31:00,
2013-03-08 09:40:00,47.9,-99.9,19.98,NNE,24,5.0,5.0,255,0.00,,,0.00,0,Wunderground v.1.15,2013-03-08 14:40:00,
2013-03-08 09:50:00,48.6,-99.9,19.99,NNE,32,3.0,3.0,255,0.00,,,0.00,0,Wunderground v.1.15,2013-03-08 14:50:00,
2013-03-08 10:00:00,49.2,-99.9,19.99,North,352,4.0,4.0,255,0.00,,,0.00,0,Wunderground v.1.15,2013-03-08 15:00:00,
2013-03-08 10:10:00,49.9,-99.9,19.99,NE,48,7.0,7.0,255,0.00,,,0.00,0,Wunderground v.1.15,2013-03-08 15:10:00,
2013-03-08 10:20:00,50.1,-99.9,19.99,NE,34,8.0,8.0,255,0.00,,,0.00,0,Wunderground v.1.15,2013-03-08 15:20:00,
2013-03-08 10:30:00,50.2,-99.9,19.99,NNE,28,11.0,11.0,255,0.00,,,0.00,0,Wunderground v.1.15,2013-03-08 15:30:00,
2013-03-08 10:40:00,50.0,-99.9,19.99,NNE,32,9.0,9.0,255,0.00,,,0.00,0,Wunderground v.1.15,2013-03-08 15:40:00,
2013-03-08 10:50:00,50.5,-99.9,19.99,NNE,19,1.0,1.0,255,0.00,,,0.00,0,Wunderground v.1.15,2013-03-08 15:50:00,
2013-03-08 11:00:00,50.4,-99.9,19.98,NNE,16,3.0,3.0,255,0.00,,,0.00,0,Wunderground v.1.15,2013-03-08 16:00:00,
2013-03-08 11:10:00,52.1,-99.9,19.98,NE,50,3.0,3.0,255,0.00,,,0.00,0,Wunderground v.1.15,2013-03-08 16:10:00,
2013-03-08 11:19:00,52.3,-99.9,19.99,NE,42,7.0,7.0,255,0.00,,,0.00,0,Wunderground v.1.15,2013-03-08 16:19:00,
2013-03-08 11:30:00,53.3,-99.9,19.98,NE,37,4.0,4.0,255,0.00,,,0.00,0,Wunderground v.1.15,2013-03-08 16:30:00,
2013-03-08 11:39:00,53.7,-99.9,19.98,North,353,7.0,7.0,255,0.00,,,0.00,0,Wunderground v.1.15,2013-03-08 16:39:00,
2013-03-08 11:49:00,53.9,-99.9,19.99,North,354,6.0,6.0,255,0.00,,,0.00,0,Wunderground v.1.15,2013-03-08 16:49:00,
2013-03-08 12:01:00,54.9,-99.9,19.98,North,358,6.0,6.0,255,0.00,,,0.00,0,Wunderground v.1.15,2013-03-08 17:01:00,
2013-03-08 12:11:00,55.2,-99.9,19.99,NNE,33,5.0,5.0,255,0.00,,,0.00,0,Wunderground v.1.15,2013-03-08 17:11:00,
2013-03-08 12:20:00,55.0,-99.9,19.99,NW,311,5.0,5.0,255,0.00,,,0.00,0,Wunderground v.1.15,2013-03-08 17:20:00,
2013-03-08 12:30:00,55.7,-99.9,19.98,NNE,16,2.0,2.0,255,0.00,,,0.00,0,Wunderground v.1.15,2013-03-08 17:30:00,
2013-03-08 12:40:00,56.4,-99.9,19.99,NE,48,1.0,1.0,255,0.00,,,0.00,0,Wunderground v.1.15,2013-03-08 17:40:00,
2013-03-08 12:50:00,56.2,-99.9,19.99,NNW,339,17.0,17.0,255,0.00,,,0.00,0,Wunderground v.1.15,2013-03-08 17:50:00,
2013-03-08 13:00:00,56.1,-99.9,19.98,NNW,348,11.0,11.0,255,0.00,,,0.00,0,Wunderground v.1.15,2013-03-08 18:00:00,
2013-03-08 13:10:00,56.8,-99.9,19.98,NNE,18,4.0,4.0,255,0.00,,,0.00,0,Wunderground v.1.15,2013-03-08 18:10:00,
2013-03-08 13:20:00,56.4,-99.9,19.99,North,351,5.0,5.0,255,0.00,,,0.00,0,Wunderground v.1.15,2013-03-08 18:20:00,
2013-03-08 13:30:00,57.6,-99.9,19.98,North,358,5.0,5.0,255,0.00,,,0.00,0,Wunderground v.1.15,2013-03-08 18:30:00,
2013-03-08 13:40:00,57.1,-99.9,19.99,NNE,30,3.0,3.0,255,0.00,,,0.00,0,Wunderground v.1.15,2013-03-08 18:40:00,
2013-03-08 13:50:00,58.2,-99.9,19.99,NNE,12,4.0,4.0,255,0.00,,,0.00,0,Wunderground v.1.15,2013-03-08 18:50:00,
2013-03-08 14:00:00,59.3,-99.9,19.98,NNW,328,7.0,7.0,255,0.00,,,0.00,0,Wunderground v.1.15,2013-03-08 19:00:00,
2013-03-08 14:10:00,58.3,-99.9,19.99,NNE,14,9.0,9.0,255,0.00,,,0.00,0,Wunderground v.1.15,2013-03-08 19:10:00,
2013-03-08 14:20:00,58.8,-99.9,19.99,NNW,346,3.0,3.0,255,0.00,,,0.00,0,Wunderground v.1.15,2013-03-08 19:20:00,
2013-03-08 14:30:00,58.8,-99.9,19.99,North,356,9.0,9.0,255,0.00,,,0.00,0,Wunderground v.1.15,2013-03-08 19:30:00,
2013-03-08 14:39:00,59.2,-99.9,19.98,NNW,341,6.0,6.0,255,0.00,,,0.00,0,Wunderground v.1.15,2013-03-08 19:39:00,
2013-03-08 14:50:00,59.1,-99.9,19.99,North,0,8.0,8.0,255,0.00,,,0.00,0,Wunderground v.1.15,2013-03-08 19:50:00,
2013-03-08 15:00:00,59.5,-99.9,19.99,North,357,7.0,7.0,255,0.00,,,0.00,0,Wunderground v.1.15,2013-03-08 20:00:00,
2013-03-08 15:11:00,58.9,-99.9,19.99,North,349,8.0,8.0,255,0.00,,,0.00,0,Wunderground v.1.15,2013-03-08 20:11:00,
2013-03-08 15:21:00,59.9,-99.9,19.99,North,0,6.0,6.0,255,0.00,,,0.00,0,Wunderground v.1.15,2013-03-08 20:21:00,
2013-03-08 15:30:00,59.6,-99.9,19.99,NNE,27,7.0,7.0,255,0.00,,,0.00,0,Wunderground v.1.15,2013-03-08 20:30:00,
2013-03-08 15:40:00,59.8,-99.9,19.99,North,358,4.0,4.0,255,0.00,,,0.00,0,Wunderground v.1.15,2013-03-08 20:40:00,
2013-03-08 15:50:00,60.1,-99.9,19.98,North,357,8.0,8.0,255,0.00,,,0.00,0,Wunderground v.1.15,2013-03-08 20:50:00,
2013-03-08 16:00:00,60.2,-99.9,19.99,NNE,27,8.0,8.0,255,0.00,,,0.00,0,Wunderground v.1.15,2013-03-08 21:00:00,
2013-03-08 16:10:00,59.6,-99.9,19.98,NNE,33,6.0,6.0,255,0.00,,,0.00,0,Wunderground v.1.15,2013-03-08 21:10:00,
2013-03-08 16:20:00,60.1,-99.9,19.99,North,9,6.0,6.0,255,0.00,,,0.00,0,Wunderground v.1.15,2013-03-08 21:20:00,
2013-03-08 16:30:00,59.7,-99.9,19.98,NE,49,5.0,5.0,255,0.00,,,0.00,0,Wunderground v.1.15,2013-03-08 21:30:00,
2013-03-08 16:40:00,60.2,-99.9,19.99,North,9,5.0,5.0,255,0.00,,,0.00,0,Wunderground v.1.15,2013-03-08 21:40:00,
2013-03-08 16:50:00,59.4,-99.9,19.99,NNE,31,8.0,8.0,255,0.00,,,0.00,0,Wunderground v.1.15,2013-03-08 21:50:00,
2013-03-08 17:00:00,59.5,-99.9,19.99,NNE,33,8.0,8.0,255,0.00,,,0.00,0,Wunderground v.1.15,2013-03-08 22:00:00,
2013-03-08 17:10:00,59.4,-99.9,19.99,North,351,8.0,8.0,255,0.00,,,0.00,0,Wunderground v.1.15,2013-03-08 22:10:00,
2013-03-08 17:20:00,59.1,-99.9,19.98,NNE,13,6.0,6.0,255,0.00,,,0.00,0,Wunderground v.1.15,2013-03-08 22:20:00,
2013-03-08 17:30:00,58.9,-99.9,19.98,North,10,6.0,6.0,255,0.00,,,0.00,0,Wunderground v.1.15,2013-03-08 22:30:00,
2013-03-08 17:39:00,58.6,-99.9,19.99,NE,46,2.0,2.0,255,0.00,,,0.00,0,Wunderground v.1.15,2013-03-08 22:39:00,
2013-03-08 17:49:00,58.0,-99.9,19.98,NNE,24,2.0,2.0,255,0.00,,,0.00,0,Wunderground v.1.15,2013-03-08 22:49:00,
2013-03-08 18:01:00,57.5,-99.9,19.99,North,11,3.0,3.0,255,0.00,,,0.00,0,Wunderground v.1.15,2013-03-08 23:01:00,
2013-03-08 18:11:00,56.3,-99.9,19.98,NNE,33,2.0,2.0,255,0.00,,,0.00,0,Wunderground v.1.15,2013-03-08 23:11:00,
2013-03-08 18:20:00,55.7,-99.9,19.98,NNE,27,2.0,2.0,255,0.00,,,0.00,0,Wunderground v.1.15,2013-03-08 23:20:00,
2013-03-08 18:31:00,54.9,-99.9,19.99,North,7,2.0,2.0,255,0.00,,,0.00,0,Wunderground v.1.15,2013-03-08 23:31:00,
2013-03-08 18:40:00,54.8,-99.9,19.99,NE,40,6.0,6.0,255,0.00,,,0.00,0,Wunderground v.1.15,2013-03-08 23:40:00,
2013-03-08 18:50:00,54.2,-99.9,19.99,NNE,26,1.0,1.0,255,0.00,,,0.00,0,Wunderground v.1.15,2013-03-08 23:50:00,
2013-03-08 19:00:00,53.6,-99.9,19.99,NNE,26,0.0,0.0,255,0.00,,,0.00,0,Wunderground v.1.15,2013-03-09 00:00:00,
2013-03-08 19:10:00,53.2,-99.9,19.99,NNE,26,0.0,0.0,255,0.00,,,0.00,0,Wunderground v.1.15,2013-03-09 00:10:00,
2013-03-08 19:20:00,53.3,-99.9,19.98,NNE,26,1.0,1.0,255,0.00,,,0.00,0,Wunderground v.1.15,2013-03-09 00:20:00,
2013-03-08 19:30:00,52.7,-99.9,19.99,NNE,26,0.0,0.0,255,0.00,,,0.00,0,Wunderground v.1.15,2013-03-09 00:30:00,
2013-03-08 19:40:00,52.2,-99.9,19.99,NNE,26,0.0,0.0,255,0.00,,,0.00,0,Wunderground v.1.15,2013-03-09 00:40:00,
2013-03-08 19:50:00,51.7,-99.9,19.99,NNE,26,0.0,0.0,255,0.00,,,0.00,0,Wunderground v.1.15,2013-03-09 00:50:00,
2013-03-08 20:00:00,51.1,-99.9,19.99,NNE,26,0.0,0.0,255,0.00,,,0.00,0,Wunderground v.1.15,2013-03-09 01:00:00,
2013-03-08 20:10:00,50.2,-99.9,19.99,NNE,26,0.0,0.0,255,0.00,,,0.00,0,Wunderground v.1.15,2013-03-09 01:10:00,
2013-03-08 20:19:00,50.8,-99.9,19.99,NNE,26,0.0,0.0,255,0.00,,,0.00,0,Wunderground v.1.15,2013-03-09 01:19:00,
2013-03-08 20:30:00,49.8,-99.9,19.99,NNE,26,0.0,0.0,255,0.00,,,0.00,0,Wunderground v.1.15,2013-03-09 01:30:00,
2013-03-08 20:39:00,49.9,-99.9,19.99,NNE,26,0.0,0.0,255,0.00,,,0.00,0,Wunderground v.1.15,2013-03-09 01:39:00,
2013-03-08 20:50:00,49.8,-99.9,19.99,NNE,26,0.0,0.0,255,0.00,,,0.00,0,Wunderground v.1.15,2013-03-09 01:50:00,
2013-03-08 21:00:00,49.3,-99.9,19.98,NNE,26,0.0,0.0,255,0.00,,,0.00,0,Wunderground v.1.15,2013-03-09 02:00:00,
2013-03-08 21:11:00,48.5,-99.9,19.99,NNE,26,0.0,0.0,255,0.00,,,0.00,0,Wunderground v.1.15,2013-03-09 02:11:00,
2013-03-08 21:20:00,48.1,-99.9,19.99,NNE,26,0.0,0.0,255,0.00,,,0.00,0,Wunderground v.1.15,2013-03-09 02:20:00,
2013-03-08 21:30:00,47.4,-99.9,19.99,NNE,26,0.0,0.0,255,0.00,,,0.00,0,Wunderground v.1.15,2013-03-09 02:30:00,
2013-03-08 21:40:00,47.2,-99.9,19.99,NNE,26,0.0,0.0,255,0.00,,,0.00,0,Wunderground v.1.15,2013-03-09 02:40:00,
2013-03-08 21:50:00,46.0,-99.9,19.99,NNE,26,0.0,0.0,255,0.00,,,0.00,0,Wunderground v.1.15,2013-03-09 02:50:00,
2013-03-08 22:00:00,46.5,-99.9,19.99,NNE,26,0.0,0.0,255,0.00,,,0.00,0,Wunderground v.1.15,2013-03-09 03:00:00,
2013-03-08 22:10:00,46.5,-99.9,19.98,NNE,26,0.0,0.0,255,0.00,,,0.00,0,Wunderground v.1.15,2013-03-09 03:10:00,
2013-03-08 22:20:00,45.3,-99.9,19.99,NNE,26,0.0,0.0,255,0.00,,,0.00,0,Wunderground v.1.15,2013-03-09 03:20:00,
2013-03-08 22:30:00,44.4,-99.9,19.99,NNE,26,0.0,0.0,255,0.00,,,0.00,0,Wunderground v.1.15,2013-03-09 03:30:00,
2013-03-08 22:40:00,43.1,-99.9,19.98,NNE,26,0.0,0.0,255,0.00,,,0.00,0,Wunderground v.1.15,2013-03-09 03:40:00,
2013-03-08 22:50:00,43.2,-99.9,19.99,NNE,26,0.0,0.0,255,0.00,,,0.00,0,Wunderground v.1.15,2013-03-09 03:50:00,
2013-03-08 23:00:00,42.8,-99.9,19.99,NNE,26,0.0,0.0,255,0.00,,,0.00,0,Wunderground v.1.15,2013-03-09 04:00:00,
2013-03-08 23:10:00,42.0,-99.9,19.99,NNE,26,0.0,0.0,255,0.00,,,0.00,0,Wunderground v.1.15,2013-03-09 04:10:00,
2013-03-08 23:20:00,41.5,-99.9,19.99,NNE,26,0.0,0.0,255,0.00,,,0.00,0,Wunderground v.1.15,2013-03-09 04:20:00,
2013-03-08 23:29:00,41.8,-99.9,19.99,NNE,26,0.0,0.0,255,0.00,,,0.00,0,Wunderground v.1.15,2013-03-09 04:29:00,
2013-03-08 23:39:00,41.8,-99.9,19.99,NNE,26,1.0,1.0,255,0.00,,,0.00,0,Wunderground v.1.15,2013-03-09 04:39:00,
2013-03-08 23:51:00,42.9,-99.9,19.99,NNE,26,0.0,0.0,255,0.00,,,0.00,0,Wunderground v.1.15,2013-03-09 04:51:00,